Time;durP1;ratioP1;P1;durP2;ratioP2;P2;SDS_P1;SDS_P2;PMS_P1;PMS_P2;Temp;Humidity;BMP_temperature;BMP_pressure;BME280_temperature;BME280_humidity;BME280_pressure;Samples;Min_cycle;Max_cycle;Signal;HPM_P1;HPM_P2
2022/04/24 00:01:30;;;;;;;35.75;23.77;;;13.60;63.00;;;9.60;78.96;93582.91;5029155;28;20044;-52
2022/04/24 00:04:02;;;;;;;33.63;23.20;;;13.60;63.10;;;9.61;78.86;93577.28;5012405;28;20034;-50
2022/04/24 00:06:34;;;;;;;32.92;23.08;;;13.60;63.20;;;9.64;78.92;93599.81;5030492;28;20441;-50
2022/04/24 00:09:00;;;;;;;33.53;23.40;;;13.60;63.20;;;9.61;79.42;93598.53;5012456;28;20049;-55
2022/04/24 00:11:26;;;;;;;36.60;24.27;;;13.60;63.20;;;9.60;78.75;93591.66;5012371;28;20646;-53
2022/04/24 00:13:55;;;;;;;37.63;24.23;;;13.60;63.10;;;9.56;79.21;93565.97;5011189;28;20508;-49
2022/04/24 00:16:20;;;;;;;38.80;25.88;;;13.60;63.10;;;9.57;79.69;93591.50;4999647;28;20400;-50
2022/04/24 00:18:47;;;;;;;41.88;26.58;;;13.60;63.20;;;9.59;79.86;93591.94;5028952;28;20041;-52
2022/04/24 00:21:21;;;;;;;38.60;25.35;;;13.60;63.30;;;9.54;80.50;93608.06;5010492;28;20038;-51
2022/04/24 00:23:47;;;;;;;39.33;26.58;;;13.60;63.60;;;9.54;81.35;93624.78;5029436;28;20504;-50
2022/04/24 00:26:13;;;;;;;39.50;26.08;;;13.50;63.70;;;9.48;81.38;93623.34;5029220;28;20120;-50
2022/04/24 00:28:38;;;;;;;43.65;27.20;;;13.50;64.00;;;9.49;82.14;93625.72;5033462;28;20037;-51
2022/04/24 00:31:07;;;;;;;40.63;27.67;;;13.40;64.10;;;9.47;82.45;93638.50;5033529;28;20072;-49
2022/04/24 00:33:32;;;;;;;46.80;29.77;;;13.40;64.50;;;9.48;82.44;93642.72;5033804;28;20041;-52
2022/04/24 00:36:01;;;;;;;45.97;28.08;;;13.40;64.70;;;9.43;82.46;93652.69;5034428;28;20513;-49
2022/04/24 00:38:31;;;;;;;47.75;29.08;;;13.30;64.90;;;9.38;82.60;93663.47;5016273;28;20434;-52
2022/04/24 00:40:57;;;;;;;40.00;27.92;;;13.20;65.00;;;9.35;82.87;93664.06;5016010;28;20037;-53
2022/04/24 00:43:23;;;;;;;43.92;28.52;;;13.20;65.20;;;9.35;83.00;93664.84;5033523;28;20038;-52
2022/04/24 00:46:12;;;;;;;45.90;30.10;;;13.20;65.30;;;9.35;83.06;93672.03;5033480;28;20079;-52
2022/04/24 00:48:40;;;;;;;51.28;31.08;;;13.20;65.60;;;9.31;83.30;93689.66;5018709;28;20033;-52
2022/04/24 00:51:08;;;;;;;46.20;29.42;;;13.10;65.40;;;9.22;84.06;93703.66;5016418;28;20048;-54
2022/04/24 00:53:39;;;;;;;49.63;31.00;;;13.10;65.70;;;9.18;84.69;93715.19;5031959;28;20496;-53
2022/04/24 00:56:06;;;;;;;45.97;28.52;;;13.10;66.30;;;9.08;85.43;93724.16;5033389;28;20056;-55
2022/04/24 00:58:33;;;;;;;32.58;19.08;;;13.00;66.50;;;8.78;85.04;93739.69;5034024;28;20037;-58
2022/04/24 01:01:00;;;;;;;19.55;11.95;;;13.00;67.60;;;8.47;84.61;93744.81;5015949;28;20037;-56
2022/04/24 01:03:27;;;;;;;10.20;6.85;;;12.90;67.70;;;8.08;84.09;93737.31;5015541;28;20034;-59
2022/04/24 01:05:59;;;;;;;11.60;7.72;;;12.70;67.40;;;8.00;85.15;93769.81;5015608;28;20534;-58
2022/04/24 01:08:25;;;;;;;8.40;4.90;;;12.50;67.40;;;7.71;84.51;93775.31;5016153;28;20045;-57
2022/04/24 01:10:51;;;;;;;7.35;3.45;;;12.30;67.60;;;7.43;85.02;93785.84;5033232;28;20042;-61
2022/04/24 01:13:19;;;;;;;7.32;3.65;;;12.10;67.60;;;7.32;85.60;93771.16;5015240;28;20060;-59
2022/04/24 01:15:45;;;;;;;4.38;3.13;;;11.90;68.00;;;7.25;86.20;93774.16;5003199;28;20500;-60
2022/04/24 01:18:11;;;;;;;5.22;3.13;;;11.70;68.10;;;7.14;86.26;93764.78;5015658;28;20045;-58
2022/04/24 01:20:37;;;;;;;4.00;2.55;;;11.60;68.50;;;7.21;86.37;93761.78;5031104;28;20045;-58
2022/04/24 01:23:03;;;;;;;4.50;2.28;;;11.40;68.60;;;7.12;86.12;93759.78;4995349;28;20046;-58
2022/04/24 01:25:28;;;;;;;1.67;1.20;;;11.40;68.70;;;6.88;85.10;93741.31;5026364;28;20052;-59
2022/04/24 01:27:57;;;;;;;2.85;1.50;;;11.30;68.90;;;6.84;86.16;93750.13;5036985;23;20100;-59
2022/04/24 01:30:29;;;;;;;3.38;1.10;;;11.10;69.10;;;6.70;86.17;93753.47;5015090;28;20056;-59
2022/04/24 01:33:04;;;;;;;0.52;0.50;;;11.00;69.30;;;6.53;85.44;93729.34;5025578;28;20030;-55
2022/04/24 01:35:30;;;;;;;1.02;0.60;;;10.90;69.50;;;6.48;85.67;93719.59;5014749;28;20037;-58
2022/04/24 01:37:59;;;;;;;0.70;0.60;;;10.80;69.40;;;6.44;86.09;93721.25;5003563;28;20109;-56
2022/04/24 01:40:34;;;;;;;0.70;0.50;;;10.70;69.50;;;6.36;86.38;93734.31;5012201;28;20041;-55
2022/04/24 01:43:02;;;;;;;1.38;0.40;;;10.70;69.80;;;6.34;86.25;93768.19;4978606;28;20038;-56
2022/04/24 01:45:28;;;;;;;1.25;0.60;;;10.60;69.80;;;6.26;86.49;93796.81;4995191;28;20172;-56
2022/04/24 01:47:57;;;;;;;2.40;0.32;;;10.50;69.90;;;6.22;86.87;93795.81;5010962;28;20136;-55
2022/04/24 01:50:23;;;;;;;0.30;0.30;;;10.40;70.00;;;6.12;86.85;93803.06;4989152;28;20134;-57
2022/04/24 01:52:48;;;;;;;0.60;0.40;;;10.40;70.30;;;6.14;87.06;93830.00;4981177;28;20141;-54
2022/04/24 01:55:14;;;;;;;1.35;0.40;;;10.40;70.40;;;6.10;86.54;93811.25;5001566;28;20551;-57
2022/04/24 01:57:40;;;;;;;0.68;0.40;;;10.30;70.60;;;5.99;86.40;93823.78;4992142;28;20489;-58
2022/04/24 02:00:07;;;;;;;0.40;0.40;;;10.30;70.90;;;5.96;86.00;93816.41;4991882;28;20065;-56
2022/04/24 02:02:35;;;;;;;0.38;0.38;;;10.20;70.90;;;6.01;86.03;93834.06;4991658;28;20400;-56
2022/04/24 02:05:01;;;;;;;0.90;0.30;;;10.10;71.00;;;6.03;86.00;93838.03;4992672;28;20513;-56
2022/04/24 02:07:28;;;;;;;1.55;0.20;;;10.10;71.00;;;5.96;85.51;93842.84;4980522;28;20043;-57
2022/04/24 02:09:54;;;;;;;0.52;0.28;;;10.10;70.90;;;5.92;85.32;93838.34;5000890;28;20054;-57
2022/04/24 02:12:23;;;;;;;0.20;0.20;;;10.10;70.90;;;5.90;84.30;93838.63;4994554;28;20543;-56
2022/04/24 02:14:49;;;;;;;0.30;0.17;;;10.00;70.90;;;5.86;84.71;93842.91;4995208;28;20073;-58
2022/04/24 02:17:14;;;;;;;0.13;0.10;;;9.90;70.60;;;5.86;84.68;93852.66;4994705;28;20085;-55
2022/04/24 02:19:40;;;;;;;0.30;0.20;;;9.90;70.70;;;5.82;84.48;93857.72;5011971;28;20515;-57
2022/04/24 02:22:06;;;;;;;0.50;0.20;;;9.90;70.60;;;5.81;85.01;93853.50;4994183;28;20091;-57
2022/04/24 02:24:32;;;;;;;0.43;0.22;;;9.80;70.60;;;5.79;85.04;93843.19;5010972;28;20029;-55
2022/04/24 02:27:00;;;;;;;0.15;0.15;;;9.80;70.60;;;5.81;84.68;93829.72;4994778;28;20038;-56
2022/04/24 02:29:29;;;;;;;0.20;0.20;;;9.80;70.60;;;5.75;84.97;93831.63;5011932;28;20385;-56
2022/04/24 02:31:55;;;;;;;0.30;0.28;;;9.80;70.60;;;5.71;85.01;93835.09;4977124;28;20041;-53
2022/04/24 02:34:23;;;;;;;0.22;0.20;;;9.80;70.50;;;5.71;85.12;93838.53;5004720;28;20037;-55
2022/04/24 02:36:49;;;;;;;0.10;0.10;;;9.80;70.60;;;5.68;85.08;93833.78;4994411;28;20504;-53
2022/04/24 02:39:15;;;;;;;0.20;0.20;;;9.70;71.30;;;5.67;84.95;93842.78;5012117;28;20042;-56
2022/04/24 02:41:41;;;;;;;0.57;0.30;;;9.70;70.60;;;5.67;85.19;93840.16;4993804;28;20041;-56
2022/04/24 02:44:13;;;;;;;0.10;0.10;;;9.70;71.30;;;5.64;85.27;93832.78;5012082;28;20045;-54
2022/04/24 02:46:40;;;;;;;0.22;0.20;;;9.70;70.60;;;5.60;84.91;93826.44;5011899;28;20044;-56
2022/04/24 02:49:06;;;;;;;0.60;0.20;;;9.60;70.60;;;5.56;84.34;93820.16;5011495;28;20121;-55
2022/04/24 02:51:35;;;;;;;0.20;0.20;;;9.60;70.60;;;5.62;84.75;93812.97;4993568;28;20169;-57
2022/04/24 02:54:03;;;;;;;0.43;0.20;;;9.60;70.60;;;5.61;84.61;93820.13;4994075;28;20072;-53
2022/04/24 02:56:41;;;;;;;0.68;0.30;;;9.60;70.60;;;5.62;84.99;93815.63;4994081;28;20060;-54
2022/04/24 02:59:11;;;;;;;0.57;0.20;;;9.60;70.70;;;5.59;84.84;93809.03;5001347;28;20112;-58
2022/04/24 03:01:40;;;;;;;0.47;0.17;;;9.60;70.70;;;5.59;84.71;93810.88;5011330;28;20074;-58
2022/04/24 03:04:12;;;;;;;0.95;0.30;;;9.60;70.60;;;5.59;84.46;93816.97;5011931;28;20037;-55
2022/04/24 03:06:41;;;;;;;0.20;0.20;;;9.50;70.60;;;5.61;84.45;93808.75;4994048;28;20029;-57
2022/04/24 03:09:09;;;;;;;0.10;0.10;;;9.50;70.50;;;5.59;84.23;93803.75;4993896;28;20042;-57
2022/04/24 03:11:41;;;;;;;0.20;0.20;;;9.50;70.40;;;5.54;83.47;93798.50;5001970;28;20520;-55
2022/04/24 03:14:06;;;;;;;0.20;0.20;;;9.50;70.40;;;5.55;83.15;93806.16;4981796;28;20503;-58
2022/04/24 03:16:35;;;;;;;0.10;0.10;;;9.50;70.20;;;5.59;83.36;93811.69;4991513;28;20034;-57
2022/04/24 03:19:01;;;;;;;0.17;0.17;;;9.50;70.20;;;5.54;83.33;93812.47;4987057;28;20050;-57
2022/04/24 03:21:27;;;;;;;0.32;0.20;;;9.50;70.20;;;5.54;84.06;93798.50;4974215;28;20065;-57
2022/04/24 03:23:55;;;;;;;1.17;0.30;;;9.50;70.20;;;5.51;83.40;93802.47;4970712;28;20049;-57
2022/04/24 03:26:27;;;;;;;0.13;0.13;;;9.50;70.10;;;5.56;83.64;93812.22;4968886;28;20054;-57
2022/04/24 03:28:59;;;;;;;0.65;0.28;;;9.50;70.00;;;5.54;83.61;93809.84;4977601;28;20030;-57
2022/04/24 03:31:31;;;;;;;1.50;0.10;;;9.50;70.00;;;5.50;83.68;93815.97;4991566;28;20395;-56
2022/04/24 03:34:03;;;;;;;0.30;0.30;;;9.40;69.90;;;5.49;84.30;93811.75;5007736;28;20312;-56
2022/04/24 03:36:29;;;;;;;0.43;0.30;;;9.40;69.90;;;5.43;84.66;93818.13;4987499;28;20557;-55
2022/04/24 03:38:57;;;;;;;0.20;0.20;;;9.40;69.90;;;5.40;85.06;93816.81;5007750;28;20109;-57
2022/04/24 03:41:28;;;;;;;0.30;0.20;;;9.40;69.90;;;5.39;85.32;93831.09;4991325;28;20053;-56
2022/04/24 03:43:54;;;;;;;0.40;0.30;;;9.40;69.90;;;5.40;85.60;93829.25;4977113;28;20029;-57
2022/04/24 03:46:20;;;;;;;0.20;0.20;;;9.40;69.90;;;5.38;85.62;93832.16;4992567;28;20033;-56
2022/04/24 03:48:48;;;;;;;0.60;0.30;;;9.40;69.90;;;5.35;85.17;93837.97;5009206;28;20050;-56
2022/04/24 03:51:14;;;;;;;0.40;0.20;;;9.50;70.70;;;5.39;85.17;93838.22;4990866;28;20147;-57
2022/04/24 03:53:40;;;;;;;0.30;0.20;;;9.50;69.90;;;5.39;84.89;93844.31;5008613;28;20099;-57
2022/04/24 03:56:11;;;;;;;0.20;0.20;;;9.50;69.80;;;5.39;85.10;93852.22;4976599;28;20033;-55
2022/04/24 03:58:40;;;;;;;0.20;0.20;;;9.50;69.80;;;5.36;85.19;93849.31;4993247;28;20500;-56
2022/04/24 04:01:08;;;;;;;0.30;0.20;;;9.50;69.80;;;5.39;85.31;93849.59;4988298;28;20086;-54
2022/04/24 04:03:34;;;;;;;0.20;0.20;;;9.50;69.80;;;5.39;85.43;93846.94;5004393;28;20045;-56
2022/04/24 04:06:03;;;;;;;0.40;0.40;;;9.50;69.80;;;5.34;84.82;93833.75;5007836;28;20100;-55
2022/04/24 04:08:29;;;;;;;0.40;0.30;;;9.50;69.90;;;5.39;85.18;93839.03;4988019;28;20046;-57
2022/04/24 04:11:01;;;;;;;1.08;0.38;;;9.40;69.80;;;5.36;85.62;93844.03;4991755;28;20039;-56
2022/04/24 04:13:29;;;;;;;2.08;0.40;;;9.40;69.80;;;5.34;85.66;93853.03;4992617;28;20068;-57
2022/04/24 04:15:55;;;;;;;0.73;0.40;;;9.40;69.80;;;5.29;85.02;93839.84;5007729;28;20405;-57
2022/04/24 04:18:21;;;;;;;0.40;0.32;;;9.40;69.60;;;5.31;85.10;93847.50;4990822;28;20042;-57
2022/04/24 04:20:46;;;;;;;0.73;0.50;;;9.40;69.50;;;5.25;85.17;93852.03;4991235;28;20036;-58
2022/04/24 04:23:12;;;;;;;0.40;0.40;;;9.40;69.50;;;5.21;85.23;93850.22;5009042;28;20040;-57
2022/04/24 04:25:38;;;;;;;1.02;0.55;;;9.30;69.40;;;5.17;84.66;93851.81;4990553;28;20412;-56
2022/04/24 04:28:04;;;;;;;0.50;0.50;;;9.30;69.40;;;5.12;85.94;93857.13;4996659;28;20074;-58
2022/04/24 04:30:36;;;;;;;1.05;0.50;;;9.30;69.50;;;5.06;85.90;93857.16;4992397;28;20038;-58
2022/04/24 04:33:09;;;;;;;0.70;0.68;;;9.30;69.60;;;5.04;86.26;93859.25;4990752;28;20535;-56
2022/04/24 04:35:36;;;;;;;0.70;0.60;;;9.30;69.60;;;5.00;85.96;93857.44;5005348;28;20038;-54
2022/04/24 04:38:02;;;;;;;1.40;0.93;;;9.30;69.50;;;5.00;86.35;93866.16;4990063;28;20054;-56
2022/04/24 04:40:28;;;;;;;1.05;0.70;;;9.20;69.60;;;4.98;86.53;93851.63;4993935;28;20054;-55
2022/04/24 04:42:57;;;;;;;1.00;0.85;;;9.20;69.70;;;5.00;86.49;93871.41;4987637;28;20054;-57
2022/04/24 04:45:28;;;;;;;0.70;0.47;;;9.20;69.80;;;5.01;86.39;93869.56;4992455;28;20034;-56
2022/04/24 04:47:54;;;;;;;0.50;0.43;;;9.20;70.00;;;5.02;86.42;93869.31;5006076;28;20046;-57
2022/04/24 04:50:23;;;;;;;0.50;0.40;;;9.20;69.90;;;5.02;86.50;93871.94;4992457;28;20106;-54
2022/04/24 04:53:01;;;;;;;0.28;0.28;;;9.20;70.00;;;5.04;86.19;93871.66;5010097;28;20480;-56
2022/04/24 04:55:30;;;;;;;0.50;0.40;;;9.20;70.00;;;5.07;85.84;93881.69;4990326;28;20060;-57
2022/04/24 04:57:58;;;;;;;0.38;0.38;;;9.20;70.00;;;5.08;86.12;93878.78;4974017;28;20475;-57
2022/04/24 05:00:24;;;;;;;0.30;0.30;;;9.30;70.10;;;5.12;85.99;93884.31;5010224;28;20045;-55
2022/04/24 05:02:50;;;;;;;0.82;0.30;;;9.30;70.00;;;5.08;85.84;93876.16;4970554;28;20104;-56
2022/04/24 05:05:16;;;;;;;0.30;0.30;;;9.30;70.10;;;5.12;85.49;93880.88;4972957;28;20034;-52
2022/04/24 05:07:42;;;;;;;1.05;0.35;;;9.30;70.10;;;5.14;85.79;93884.03;4987714;28;20105;-56
2022/04/24 05:10:09;;;;;;;0.20;0.20;;;9.30;70.00;;;5.18;85.81;93888.50;4976571;28;20622;-55
2022/04/24 05:12:35;;;;;;;0.93;0.60;;;9.40;70.00;;;5.22;85.49;93896.66;4974601;28;20058;-56
2022/04/24 05:15:09;;;;;;;0.50;0.50;;;9.40;70.00;;;5.26;85.49;93892.41;4985113;28;20161;-57
2022/04/24 05:17:40;;;;;;;0.47;0.20;;;9.40;70.00;;;5.26;85.42;93893.19;4994164;28;20495;-54
2022/04/24 05:20:10;;;;;;;0.20;0.20;;;9.50;69.90;;;5.27;85.62;93892.16;5013851;28;20034;-53
2022/04/24 05:22:41;;;;;;;0.60;0.40;;;9.50;69.80;;;5.29;86.27;93891.88;4979689;28;20045;-55
2022/04/24 05:25:10;;;;;;;0.40;0.40;;;9.60;69.90;;;5.34;86.20;93895.28;4993453;28;20512;-56
2022/04/24 05:27:39;;;;;;;0.70;0.57;;;9.60;69.80;;;5.39;85.99;93898.94;4998130;28;20523;-57
2022/04/24 05:30:07;;;;;;;0.28;0.28;;;9.70;69.90;;;5.42;85.97;93895.75;5003568;28;20640;-55
2022/04/24 05:32:47;;;;;;;0.43;0.43;;;9.70;69.80;;;5.43;85.82;93886.78;5011429;28;20050;-55
2022/04/24 05:35:13;;;;;;;0.30;0.30;;;9.80;69.80;;;5.47;86.02;93891.25;4981667;28;20026;-58
2022/04/24 05:37:40;;;;;;;0.85;0.35;;;9.80;69.60;;;5.49;86.20;93893.63;5007994;28;20101;-57
2022/04/24 05:40:07;;;;;;;0.38;0.38;;;9.90;69.60;;;5.54;86.25;93889.09;4973773;28;20166;-56
2022/04/24 05:42:34;;;;;;;0.30;0.30;;;10.00;69.60;;;5.63;86.09;93894.59;4990093;28;20108;-55
2022/04/24 05:45:01;;;;;;;0.20;0.20;;;10.00;69.60;;;5.69;85.96;93898.78;5012216;28;20088;-58
2022/04/24 05:47:27;;;;;;;0.50;0.30;;;10.10;69.50;;;5.76;85.94;93901.09;4995358;28;20642;-57
2022/04/24 05:49:53;;;;;;;0.50;0.30;;;10.20;69.60;;;5.78;85.66;93904.25;4965938;28;20051;-56
2022/04/24 05:52:27;;;;;;;0.95;0.30;;;10.30;69.50;;;5.85;85.73;93896.03;4993136;28;20045;-55
2022/04/24 05:54:59;;;;;;;0.30;0.30;;;10.30;69.50;;;5.92;85.44;93912.34;4975883;28;20033;-52
2022/04/24 05:57:25;;;;;;;0.30;0.30;;;10.40;69.50;;;5.97;85.45;93918.41;5028249;28;20034;-53
2022/04/24 05:59:57;;;;;;;0.50;0.40;;;10.40;69.20;;;5.95;85.73;93904.69;4986802;28;20050;-51
2022/04/24 06:02:36;;;;;;;0.30;0.30;;;10.60;69.30;;;6.07;85.21;93922.84;4975630;28;20034;-56
2022/04/24 06:05:01;;;;;;;1.02;0.40;;;10.70;69.30;;;6.12;85.68;93922.81;4993884;28;20123;-57
2022/04/24 06:07:27;;;;;;;0.55;0.45;;;10.70;69.00;;;6.20;85.44;93914.28;5024551;28;20061;-54
2022/04/24 06:09:53;;;;;;;0.40;0.40;;;10.80;69.00;;;6.28;85.69;93923.47;5008955;28;20040;-56
2022/04/24 06:12:19;;;;;;;0.45;0.40;;;10.90;68.90;;;6.36;85.51;93924.72;4994701;28;20045;-57
2022/04/24 06:14:44;;;;;;;0.30;0.30;;;11.00;68.90;;;6.44;84.80;93927.56;4994808;28;20496;-55
2022/04/24 06:17:10;;;;;;;0.47;0.25;;;11.10;68.80;;;6.55;84.04;93930.91;5011791;28;20132;-56
2022/04/24 06:19:36;;;;;;;1.48;0.30;;;11.20;68.60;;;6.65;84.15;93928.16;4989568;28;20427;-54
2022/04/24 06:22:02;;;;;;;0.28;0.28;;;11.40;68.60;;;6.76;83.76;93928.84;4992823;28;20054;-56
2022/04/24 06:24:28;;;;;;;3.67;0.52;;;11.50;68.30;;;6.89;83.80;93928.19;4992613;28;20034;-54
2022/04/24 06:26:53;;;;;;;1.02;0.20;;;11.70;68.10;;;7.00;83.30;93933.38;4990853;28;20037;-52
2022/04/24 06:29:19;;;;;;;0.25;0.25;;;11.80;68.00;;;7.08;82.52;93935.38;4992986;28;20247;-54
2022/04/24 06:31:45;;;;;;;1.25;0.32;;;12.00;67.70;;;7.13;81.30;93930.81;4999237;28;20049;-52
2022/04/24 06:34:11;;;;;;;0.50;0.25;;;12.10;67.50;;;7.12;80.52;93912.59;5028775;28;20033;-53
2022/04/24 06:36:37;;;;;;;0.20;0.20;;;12.20;67.20;;;7.26;78.84;93924.06;5013852;28;20083;-54
2022/04/24 06:39:03;;;;;;;0.50;0.30;;;12.20;66.70;;;7.31;78.97;93917.91;5014326;28;20037;-55
2022/04/24 06:41:31;;;;;;;0.88;0.30;;;12.30;66.20;;;7.47;77.82;93929.88;5014163;28;20163;-53
2022/04/24 06:43:59;;;;;;;0.45;0.40;;;12.40;66.30;;;7.56;79.28;93930.06;5006850;28;20025;-54
2022/04/24 06:46:25;;;;;;;0.35;0.30;;;12.50;66.10;;;7.66;77.40;93940.50;5012456;28;20037;-57
2022/04/24 06:48:51;;;;;;;1.75;0.30;;;12.60;65.80;;;7.74;77.77;93937.22;5026727;28;20034;-53
2022/04/24 06:51:16;;;;;;;0.43;0.43;;;12.70;65.50;;;7.82;77.93;93944.53;4985247;28;20513;-55
2022/04/24 06:53:42;;;;;;;0.30;0.30;;;12.80;65.20;;;7.81;76.50;93947.47;5003702;28;20439;-56
2022/04/24 06:56:08;;;;;;;0.50;0.30;;;12.80;64.70;;;7.91;77.34;93946.53;5001842;28;20397;-57
2022/04/24 06:58:34;;;;;;;0.70;0.30;;;12.90;64.70;;;8.04;77.16;93957.19;4999851;28;20046;-55
2022/04/24 07:01:06;;;;;;;0.77;0.40;;;13.00;64.60;;;8.07;76.47;93956.63;5003482;28;20397;-55
2022/04/24 07:03:38;;;;;;;0.95;0.40;;;13.10;64.30;;;8.13;76.01;93952.03;4996657;28;20427;-57
2022/04/24 07:06:07;;;;;;;0.45;0.40;;;13.20;64.10;;;8.19;75.46;93956.19;5005840;28;20049;-57
2022/04/24 07:08:38;;;;;;;0.63;0.38;;;13.30;63.70;;;8.27;75.05;93960.03;5000100;28;20065;-56
2022/04/24 07:11:04;;;;;;;1.40;0.47;;;13.40;63.50;;;8.27;74.56;93966.16;5003571;28;20046;-56
2022/04/24 07:13:30;;;;;;;0.85;0.52;;;13.50;63.10;;;8.43;75.05;93972.03;5009117;28;20034;-57
2022/04/24 07:15:56;;;;;;;1.15;0.40;;;13.50;63.00;;;8.62;75.25;93966.69;5001627;28;20508;-53
2022/04/24 07:18:22;;;;;;;0.63;0.40;;;13.70;63.00;;;8.71;73.72;93962.28;4974512;28;20057;-56
2022/04/24 07:20:47;;;;;;;0.30;0.30;;;13.80;62.90;;;8.83;73.88;93956.50;4992477;28;20100;-55
2022/04/24 07:23:13;;;;;;;1.10;0.50;;;13.90;62.50;;;8.86;72.65;93971.06;5007165;28;20512;-53
2022/04/24 07:25:43;;;;;;;0.80;0.50;;;14.10;62.10;;;8.97;73.16;93964.50;5010205;28;20108;-55
2022/04/24 07:28:14;;;;;;;0.45;0.40;;;14.20;61.80;;;9.15;72.16;93976.09;5010869;23;20158;-56
2022/04/24 07:30:41;;;;;;;0.32;0.32;;;14.40;61.70;;;9.22;71.53;93976.53;4994631;28;20144;-55
2022/04/24 07:33:07;;;;;;;0.50;0.40;;;14.50;61.00;;;9.40;72.54;93982.81;5004408;28;20789;-55
2022/04/24 07:35:42;;;;;;;1.10;0.50;;;14.70;61.00;;;9.49;69.07;93983.69;4990611;28;20034;-54
2022/04/24 07:38:09;;;;;;;0.47;0.40;;;14.90;60.30;;;9.49;70.24;93989.00;4971822;28;20493;-52
2022/04/24 07:40:40;;;;;;;0.45;0.45;;;15.00;59.80;;;9.36;68.44;93987.94;4978898;28;20058;-49
2022/04/24 07:43:11;;;;;;;0.30;0.30;;;15.10;59.00;;;9.39;68.55;93992.66;4973579;28;20035;-54
2022/04/24 07:45:55;;;;;;;0.40;0.40;;;15.10;58.30;;;9.48;68.49;93992.75;4971958;28;20506;-50
2022/04/24 07:48:21;;;;;;;0.55;0.40;;;15.20;58.10;;;9.50;67.97;93998.59;4970755;28;20643;-52
2022/04/24 07:50:50;;;;;;;0.47;0.40;;;15.20;57.60;;;9.45;67.71;93999.44;4990189;28;20034;-51
2022/04/24 07:53:20;;;;;;;0.30;0.30;;;15.30;57.10;;;9.48;67.60;94001.53;4976349;28;20042;-52
2022/04/24 07:56:06;;;;;;;0.32;0.32;;;15.30;56.60;;;9.50;65.88;93991.38;4966965;28;20033;-53
2022/04/24 07:58:32;;;;;;;0.50;0.30;;;15.30;56.20;;;9.65;67.31;93997.47;4972931;28;20121;-51
2022/04/24 08:01:04;;;;;;;0.30;0.30;;;15.40;56.20;;;9.65;67.27;94000.94;4988427;28;20121;-51
2022/04/24 08:03:29;;;;;;;0.30;0.30;;;15.50;55.80;;;9.78;67.14;94001.19;4973294;28;20054;-56
2022/04/24 08:06:04;;;;;;;1.17;0.35;;;15.50;55.90;;;9.95;65.55;94007.47;4990593;28;20072;-51
2022/04/24 08:08:33;;;;;;;0.32;0.32;;;15.70;56.10;;;10.02;65.75;94012.41;4988446;28;20054;-53
2022/04/24 08:11:01;;;;;;;2.17;0.50;;;15.80;56.00;;;10.14;66.98;94012.66;4986064;28;20440;-48
2022/04/24 08:13:27;;;;;;;0.90;0.80;;;15.90;55.60;;;10.29;66.84;94019.56;4971383;28;20054;-49
2022/04/24 08:15:54;;;;;;;0.60;0.47;;;16.00;55.70;;;10.33;66.51;94011.75;4953753;28;20240;-55
2022/04/24 08:18:20;;;;;;;0.77;0.47;;;16.10;55.50;;;10.46;65.38;94015.47;4960946;28;20485;-58
2022/04/24 08:20:47;;;;;;;0.40;0.40;;;16.20;55.40;;;10.55;66.57;94014.44;4972904;28;20478;-56
2022/04/24 08:23:17;;;;;;;0.40;0.40;;;16.30;55.40;;;10.71;65.96;94024.75;4967286;28;20046;-51
2022/04/24 08:25:45;;;;;;;0.35;0.30;;;16.40;55.50;;;10.70;65.76;94023.97;4972372;28;20034;-52
2022/04/24 08:28:12;;;;;;;0.40;0.40;;;16.40;55.10;;;10.82;64.61;94023.41;4971291;28;20037;-55
2022/04/24 08:30:42;;;;;;;1.45;0.55;;;16.50;55.00;;;10.87;64.45;94034.75;4965697;28;20386;-51
2022/04/24 08:33:09;;;;;;;0.47;0.40;;;16.40;54.70;;;10.86;63.55;94032.38;4966104;28;20043;-51
2022/04/24 08:35:34;;;;;;;0.60;0.50;;;16.50;54.50;;;10.97;64.69;94036.38;4958181;28;20027;-52
2022/04/24 08:38:00;;;;;;;0.60;0.40;;;16.60;54.60;;;11.05;63.46;94032.16;4965435;28;20046;-51
2022/04/24 08:40:26;;;;;;;0.75;0.50;;;16.60;54.30;;;11.15;62.57;94034.56;4945965;28;20113;-56
2022/04/24 08:42:54;;;;;;;0.55;0.40;;;16.70;54.20;;;11.08;63.38;94039.56;4974980;28;20109;-59
2022/04/24 08:45:26;;;;;;;0.93;0.50;;;16.80;53.90;;;11.17;63.14;94032.41;4964988;28;20057;-52
2022/04/24 08:47:52;;;;;;;0.50;0.40;;;16.80;53.80;;;11.18;62.48;94033.19;4969607;28;20042;-54
2022/04/24 08:50:21;;;;;;;1.48;0.30;;;16.90;53.50;;;11.05;61.93;94037.50;4966495;28;20486;-52
2022/04/24 08:52:48;;;;;;;0.88;0.60;;;16.90;52.70;;;10.96;63.25;94034.78;4956960;28;20043;-49
2022/04/24 08:55:15;;;;;;;0.60;0.60;;;16.90;52.40;;;11.07;63.22;94038.78;4965700;28;20560;-53
2022/04/24 08:57:41;;;;;;;0.57;0.40;;;16.90;52.30;;;11.14;62.03;94033.00;4953714;28;20126;-48
2022/04/24 09:00:08;;;;;;;0.40;0.40;;;16.90;52.10;;;10.97;61.57;94024.91;4963152;28;20129;-53
2022/04/24 09:02:38;;;;;;;0.73;0.60;;;17.00;51.70;;;11.08;61.70;94036.91;4957729;28;20465;-53
2022/04/24 09:05:06;;;;;;;0.50;0.40;;;16.90;51.50;;;11.05;61.17;94040.94;4960849;28;20093;-48
2022/04/24 09:07:33;;;;;;;0.40;0.40;;;17.00;51.10;;;11.05;61.76;94035.63;4961398;28;20058;-56
2022/04/24 09:10:11;;;;;;;0.47;0.47;;;17.00;51.00;;;11.06;61.31;94031.06;4966060;28;20076;-51
2022/04/24 09:12:38;;;;;;;0.40;0.40;;;17.00;50.80;;;11.12;60.75;94037.84;4979972;28;20058;-51
2022/04/24 09:15:06;;;;;;;0.50;0.45;;;17.00;50.80;;;11.28;62.01;94044.38;4975287;28;20041;-48
2022/04/24 09:17:34;;;;;;;0.40;0.40;;;17.00;50.80;;;11.43;60.80;94043.19;4971993;28;20042;-51
2022/04/24 09:20:03;;;;;;;0.30;0.30;;;17.00;50.90;;;11.38;59.48;94040.66;4980312;28;20141;-49
2022/04/24 09:22:38;;;;;;;0.75;0.40;;;17.10;50.70;;;11.46;59.83;94042.56;4967350;28;20047;-54
2022/04/24 09:25:04;;;;;;;0.82;0.43;;;17.20;50.20;;;11.55;60.23;94047.94;4979732;28;20120;-54
2022/04/24 09:27:40;;;;;;;0.65;0.40;;;17.30;50.20;;;11.45;59.35;94061.56;4976762;28;20052;-54
2022/04/24 09:30:14;;;;;;;0.65;0.43;;;17.30;49.60;;;11.63;58.64;94054.44;4989123;28;20188;-56
2022/04/24 09:32:51;;;;;;;1.10;0.85;;;17.20;49.90;;;11.55;60.52;94058.63;4966171;28;20165;-55
2022/04/24 09:35:54;;;;;;;1.40;0.60;;;17.30;49.70;;;11.37;59.07;94059.63;4957953;28;20034;-57
2022/04/24 09:38:20;;;;;;;0.60;0.50;;;17.20;49.30;;;11.23;60.52;94065.06;4956286;28;20057;-55
2022/04/24 09:40:48;;;;;;;0.60;0.40;;;17.10;49.00;;;11.11;60.40;94066.38;4973422;28;20480;-56
2022/04/24 09:43:20;;;;;;;0.32;0.30;;;17.10;48.70;;;11.06;61.59;94071.84;4939596;28;21527;-57
2022/04/24 09:45:58;;;;;;;1.10;0.40;;;17.00;48.80;;;11.24;60.60;94080.72;4989947;28;20037;-57
2022/04/24 09:48:30;;;;;;;0.43;0.40;;;17.10;48.90;;;11.29;60.10;94077.94;4975794;28;20203;-57
2022/04/24 09:50:59;;;;;;;0.40;0.40;;;17.10;49.00;;;11.28;59.40;94083.56;4993490;28;20121;-57
2022/04/24 09:53:35;;;;;;;0.47;0.43;;;17.20;48.70;;;11.17;61.96;94082.25;4994174;28;20046;-57
2022/04/24 09:56:12;;;;;;;0.38;0.38;;;17.20;48.30;;;11.19;60.62;94091.53;4992360;28;20030;-57
2022/04/24 09:58:38;;;;;;;0.40;0.40;;;17.30;48.10;;;11.45;59.46;94089.00;4991568;28;20137;-56
2022/04/24 10:01:18;;;;;;;0.65;0.40;;;17.40;48.10;;;11.40;60.21;94086.47;4976106;28;20162;-57
2022/04/24 10:03:46;;;;;;;2.72;0.40;;;17.60;47.70;;;11.49;58.88;94083.84;4990790;28;20038;-58
2022/04/24 10:06:15;;;;;;;1.25;0.40;;;17.70;47.40;;;11.67;59.28;94082.84;4989750;28;20074;-57
2022/04/24 10:08:42;;;;;;;0.80;0.80;;;17.90;47.20;;;11.49;59.10;94091.84;4972788;28;20090;-53
2022/04/24 10:11:14;;;;;;;1.05;0.63;;;18.00;46.60;;;11.47;58.53;94081.50;4978916;28;20061;-57
2022/04/24 10:13:46;;;;;;;0.40;0.30;;;18.00;46.20;;;11.50;59.14;94091.56;4975387;28;20089;-56
2022/04/24 10:19:38;;;;;;;0.40;0.40;;;18.00;46.50;;;11.84;58.37;94092.00;5000268;28;20074;-55
2022/04/24 10:22:41;;;;;;;1.95;0.52;;;18.00;46.60;;;11.77;58.02;94087.88;4929395;28;20161;-53
2022/04/24 10:25:08;;;;;;;0.50;0.50;;;18.00;46.20;;;11.70;57.19;94094.78;4982660;28;20104;-53
2022/04/24 10:27:44;;;;;;;0.38;0.38;;;18.00;45.90;;;11.53;59.72;94100.78;4992929;28;20072;-57
2022/04/24 10:30:22;;;;;;;0.57;0.55;;;18.00;45.60;;;11.11;58.92;94078.94;4997081;28;20157;-53
2022/04/24 10:32:49;;;;;;;0.30;0.30;;;18.00;46.20;;;11.35;58.86;94105.25;4997474;28;20034;-54
2022/04/24 10:35:19;;;;;;;0.63;0.50;;;17.90;45.60;;;11.19;59.02;94104.84;5000233;28;20141;-57